createdAt,value
2019-04-05T00:00:30.321Z,92.20
2019-04-05T00:01:30.300Z,92.90
2019-04-05T00:02:30.290Z,92.20
2019-04-05T00:03:30.286Z,97.50
2019-04-05T00:04:30.284Z,86.90
2019-04-05T00:05:30.268Z,88.70
2019-04-05T00:06:30.243Z,91.80
2019-04-05T00:07:30.234Z,90.40
2019-04-05T00:08:30.226Z,90.90
2019-04-05T00:09:30.236Z,94.00
2019-04-05T00:10:30.204Z,95.80
2019-04-05T00:11:30.185Z,91.10
2019-04-05T00:12:30.171Z,90.90
2019-04-05T00:13:30.173Z,88.50
2019-04-05T00:14:30.179Z,94.50
2019-04-05T00:15:30.156Z,87.30
2019-04-05T00:16:30.139Z,86.00
2019-04-05T00:17:30.122Z,89.60
2019-04-05T00:18:30.114Z,84.20
2019-04-05T00:19:30.159Z,85.50
2019-04-05T00:20:30.121Z,84.00
2019-04-05T00:21:30.081Z,85.50
2019-04-05T00:22:30.060Z,80.40
2019-04-05T00:23:30.061Z,80.30
2019-04-05T00:24:30.074Z,83.30
2019-04-05T00:25:30.055Z,84.00
2019-04-05T00:26:30.030Z,83.90
2019-04-05T00:27:30.040Z,84.40
2019-04-05T00:28:30.022Z,86.20
2019-04-05T00:29:30.015Z,77.40
2019-04-05T00:30:29.984Z,84.70
2019-04-05T00:31:29.979Z,83.20
2019-04-05T00:32:30.139Z,85.80
2019-04-05T00:33:29.946Z,83.10
2019-04-05T00:34:29.954Z,78.80
2019-04-05T00:35:29.936Z,81.10
2019-04-05T00:36:29.926Z,81.60
2019-04-05T00:37:29.912Z,85.60
2019-04-05T00:38:29.895Z,87.80
2019-04-05T00:39:29.902Z,80.50
2019-04-05T00:40:29.880Z,81.70
2019-04-05T00:41:32.840Z,81.90
2019-04-05T00:42:29.854Z,81.20
2019-04-05T00:43:29.850Z,83.30
2019-04-05T00:44:29.855Z,84.40
2019-04-05T00:45:29.827Z,90.30
2019-04-05T00:46:29.817Z,82.00
2019-04-05T00:47:29.810Z,87.90
2019-04-05T00:48:29.789Z,80.10
2019-04-05T00:49:29.791Z,85.30
2019-04-05T00:50:29.758Z,87.00
2019-04-05T00:51:29.768Z,84.90
2019-04-05T00:52:29.742Z,87.90
2019-04-05T00:53:29.730Z,84.60
2019-04-05T00:54:29.744Z,90.30
2019-04-05T00:55:29.741Z,81.50
2019-04-05T00:56:29.699Z,84.30
2019-04-05T00:57:29.693Z,82.90
2019-04-05T00:58:29.671Z,86.10
2019-04-05T00:59:29.683Z,76.70
2019-04-05T01:00:29.648Z,80.60
2019-04-05T01:01:29.660Z,84.90
2019-04-05T01:02:29.627Z,77.50
2019-04-05T01:03:29.639Z,86.20
2019-04-05T01:04:29.638Z,84.90
2019-04-05T01:05:29.625Z,80.70
2019-04-05T01:06:29.583Z,80.30
2019-04-05T01:07:29.596Z,79.00
2019-04-05T01:08:29.557Z,84.60
2019-04-05T01:09:29.566Z,85.50
2019-04-05T01:10:29.564Z,79.70
2019-04-05T01:11:29.565Z,83.50
2019-04-05T01:12:31.796Z,86.70
2019-04-05T01:13:29.515Z,86.30
2019-04-05T01:14:29.502Z,88.40
2019-04-05T01:15:40.232Z,88.50
2019-04-05T01:16:29.480Z,84.90
2019-04-05T01:17:29.470Z,86.10
2019-04-05T01:18:29.455Z,81.80
2019-04-05T01:19:29.464Z,84.40
2019-04-05T01:20:29.447Z,89.60
2019-04-05T01:21:29.446Z,80.40
2019-04-05T01:22:29.413Z,82.10
2019-04-05T01:23:29.403Z,84.60
2019-04-05T01:24:29.432Z,84.90
2019-04-05T01:25:29.410Z,81.10
2019-04-05T01:26:29.374Z,81.00
2019-04-05T01:27:29.365Z,78.70
2019-04-05T01:30:00.441Z,70.30
2019-04-05T01:31:01.406Z,81.70
2019-04-05T01:32:01.407Z,80.20
2019-04-05T01:33:01.403Z,87.00
2019-04-05T01:34:01.395Z,86.80
2019-04-05T01:35:01.394Z,84.50
2019-04-05T01:36:01.376Z,80.30
2019-04-05T01:37:01.373Z,83.50
2019-04-05T01:38:01.331Z,80.20
2019-04-05T01:39:01.338Z,89.20
2019-04-05T01:40:01.343Z,89.00
2019-04-05T01:41:01.316Z,91.40
2019-04-05T01:42:01.293Z,88.20
2019-04-05T01:43:01.283Z,91.20
2019-04-05T01:44:01.271Z,90.00
2019-04-05T01:45:01.305Z,95.10
2019-04-05T01:46:01.246Z,94.90
2019-04-05T01:47:01.265Z,92.70
2019-04-05T01:48:01.248Z,91.70
2019-04-05T01:49:01.221Z,89.00
2019-04-05T01:50:01.274Z,90.80
2019-04-05T01:51:01.207Z,88.70
2019-04-05T01:52:01.176Z,88.20
2019-04-05T01:53:01.171Z,91.80
2019-04-05T01:54:01.166Z,88.60
2019-04-05T01:55:01.175Z,92.00
2019-04-05T01:56:01.160Z,99.90
2019-04-05T01:57:01.131Z,95.70
2019-04-05T01:58:01.117Z,90.90
2019-04-05T01:59:01.108Z,94.00
2019-04-05T02:00:01.104Z,93.10
2019-04-05T02:01:01.121Z,90.90
2019-04-05T02:02:01.072Z,96.40
2019-04-05T02:03:01.063Z,93.30
2019-04-05T02:04:01.061Z,87.30
2019-04-05T02:05:01.039Z,92.10
2019-04-05T02:06:01.055Z,95.80
2019-04-05T02:07:01.018Z,98.30
2019-04-05T02:08:01.015Z,94.10
2019-04-05T02:09:01.010Z,88.50
2019-04-05T02:10:00.993Z,97.90
2019-04-05T02:11:00.989Z,94.70
2019-04-05T02:12:00.962Z,94.60
2019-04-05T02:13:00.985Z,89.10
2019-04-05T02:14:00.942Z,89.10
2019-04-05T02:15:00.948Z,95.20
2019-04-05T02:16:06.536Z,90.20
2019-04-05T02:17:00.924Z,97.40
2019-04-05T02:18:00.926Z,107.60
2019-04-05T02:19:00.896Z,91.50
2019-04-05T02:20:00.877Z,90.60
2019-04-05T02:21:00.897Z,96.40
2019-04-05T02:22:00.870Z,91.50
2019-04-05T02:23:00.848Z,90.20
2019-04-05T02:24:00.839Z,93.60
2019-04-05T02:25:00.822Z,90.30
2019-04-05T02:26:00.843Z,93.40
2019-04-05T02:27:00.814Z,92.40
2019-04-05T02:28:00.793Z,87.10
2019-04-05T02:29:00.776Z,92.50
2019-04-05T02:30:00.778Z,96.20
2019-04-05T02:31:00.787Z,91.30
2019-04-05T02:32:00.749Z,89.50
2019-04-05T02:33:00.743Z,87.10
2019-04-05T02:34:00.729Z,85.60
2019-04-05T02:35:00.725Z,87.80
2019-04-05T02:36:00.727Z,79.80
2019-04-05T02:37:00.707Z,83.10
2019-04-05T02:38:00.701Z,87.20
2019-04-05T02:39:00.675Z,87.30
2019-04-05T02:40:00.664Z,90.00
2019-04-05T02:41:00.687Z,81.40
2019-04-05T02:42:00.634Z,83.20
2019-04-05T02:43:00.643Z,97.60
2019-04-05T02:44:00.641Z,91.40
2019-04-05T02:45:00.633Z,87.70
2019-04-05T02:46:00.648Z,93.20
2019-04-05T02:47:00.595Z,88.20
2019-04-05T02:48:00.594Z,91.90
2019-04-05T02:49:00.569Z,91.70
2019-04-05T02:50:00.564Z,96.90
2019-04-05T02:51:00.572Z,91.90
2019-04-05T02:52:00.545Z,96.20
2019-04-05T02:53:00.538Z,88.90
2019-04-05T02:54:00.526Z,98.10
2019-04-05T02:55:00.517Z,97.50
2019-04-05T02:56:02.973Z,91.70
2019-04-05T02:57:00.539Z,96.00
2019-04-05T02:58:00.505Z,112.00
2019-04-05T02:59:00.469Z,106.80
2019-04-05T03:00:00.455Z,105.30
2019-04-05T03:01:00.459Z,107.00
2019-04-05T03:02:00.430Z,113.70
2019-04-05T03:03:00.424Z,108.10
2019-04-05T03:04:00.407Z,98.90
2019-04-05T03:05:00.392Z,90.00
2019-04-05T03:06:00.404Z,98.30
2019-04-05T03:07:00.386Z,96.50
2019-04-05T03:08:00.388Z,95.90
2019-04-05T03:09:00.370Z,93.20
2019-04-05T03:10:00.366Z,99.20
2019-04-05T03:11:00.349Z,100.20
2019-04-05T03:12:00.320Z,94.90
2019-04-05T03:13:00.321Z,103.00
2019-04-05T03:14:00.294Z,90.30
2019-04-05T03:15:00.296Z,102.70
2019-04-05T03:16:00.326Z,91.50
2019-04-05T03:17:00.297Z,91.00
2019-04-05T03:18:00.287Z,95.10
2019-04-05T03:19:00.266Z,88.40
2019-04-05T03:20:00.230Z,90.50
2019-04-05T03:21:00.242Z,95.70
2019-04-05T03:22:00.208Z,101.20
2019-04-05T03:23:00.205Z,111.00
2019-04-05T03:24:00.189Z,90.00
2019-04-05T03:25:00.190Z,103.60
2019-04-05T03:26:00.244Z,91.80
2019-04-05T03:27:00.155Z,99.80
2019-04-05T03:28:00.168Z,90.00
2019-04-05T03:29:00.170Z,87.90
2019-04-05T03:33:43.565Z,101.70
2019-04-05T03:34:44.551Z,95.90
2019-04-05T03:35:44.527Z,94.50
2019-04-05T03:36:44.536Z,97.10
2019-04-05T03:37:44.500Z,93.10
2019-04-05T03:38:44.486Z,88.90
2019-04-05T03:39:44.486Z,95.50
2019-04-05T03:40:44.471Z,95.40
2019-04-05T03:41:44.473Z,87.20
2019-04-05T03:42:44.448Z,99.70
2019-04-05T03:43:44.439Z,93.10
2019-04-05T03:44:44.420Z,87.70
2019-04-05T03:45:44.411Z,106.00
2019-04-05T03:46:56.297Z,95.10
2019-04-05T03:47:44.391Z,90.90
2019-04-05T03:48:44.389Z,92.90
2019-04-05T03:49:44.366Z,92.50
2019-04-05T03:50:45.322Z,86.70
2019-04-05T03:51:44.364Z,81.20
2019-04-05T03:52:44.346Z,87.00
2019-04-05T03:53:44.323Z,93.00
2019-04-05T03:54:44.311Z,85.20
2019-04-05T03:55:44.321Z,88.00
2019-04-05T03:56:44.311Z,84.50
2019-04-05T03:57:44.281Z,87.30
2019-04-05T03:58:44.269Z,90.20
2019-04-05T03:59:44.259Z,92.90
2019-04-05T04:00:44.240Z,91.00
2019-04-05T04:01:44.258Z,95.40
2019-04-05T04:02:44.224Z,93.10
2019-04-05T04:03:44.209Z,90.40
2019-04-05T04:04:44.193Z,100.60
2019-04-05T04:05:44.180Z,89.80
2019-04-05T04:06:44.207Z,91.90
2019-04-05T04:07:44.161Z,91.20
2019-04-05T04:08:44.155Z,86.50
2019-04-05T04:09:44.166Z,92.70
2019-04-05T04:10:44.148Z,105.80
2019-04-05T04:11:44.148Z,91.90
2019-04-05T04:12:44.145Z,94.20
2019-04-05T04:13:44.110Z,85.60
2019-04-05T04:14:44.101Z,96.80
2019-04-05T04:15:44.163Z,94.40
2019-04-05T04:16:44.083Z,98.50
2019-04-05T04:17:44.098Z,89.50
2019-04-05T04:18:44.053Z,89.90
2019-04-05T04:19:44.077Z,100.90
2019-04-05T04:20:44.041Z,91.10
2019-04-05T04:21:44.011Z,88.20
2019-04-05T04:22:44.038Z,87.20
2019-04-05T04:23:44.011Z,89.90
2019-04-05T04:24:44.870Z,87.80
2019-04-05T04:25:43.966Z,95.70
2019-04-05T04:26:43.965Z,94.40
2019-04-05T04:27:43.961Z,101.00
2019-04-05T04:28:44.000Z,98.90
2019-04-05T04:29:43.933Z,89.40
2019-04-05T04:30:43.916Z,90.40
2019-04-05T04:31:43.902Z,89.20
2019-04-05T04:32:43.952Z,89.30
2019-04-05T04:33:43.886Z,93.60
2019-04-05T04:34:43.895Z,109.10
2019-04-05T04:35:43.866Z,95.20
2019-04-05T04:36:43.858Z,92.20
2019-04-05T04:37:43.857Z,101.60
2019-04-05T04:38:43.838Z,91.90
2019-04-05T04:39:43.810Z,93.00
2019-04-05T04:40:43.807Z,88.90
2019-04-05T04:41:43.784Z,91.50
2019-04-05T04:42:43.792Z,118.30
2019-04-05T04:43:43.768Z,98.10
2019-04-05T04:44:43.765Z,95.00
2019-04-05T04:45:43.745Z,96.30
2019-04-05T04:46:43.734Z,86.30
2019-04-05T04:47:43.760Z,92.00
2019-04-05T04:48:43.706Z,91.70
2019-04-05T04:49:43.719Z,92.20
2019-04-05T04:50:43.720Z,97.80
2019-04-05T04:51:43.690Z,95.40
2019-04-05T04:52:43.689Z,99.70
2019-04-05T04:53:43.654Z,94.10
2019-04-05T04:54:43.653Z,94.50
2019-04-05T04:55:43.637Z,99.80
2019-04-05T04:56:43.633Z,91.70
2019-04-05T04:57:43.624Z,89.00
2019-04-05T04:58:46.232Z,111.20
2019-04-05T04:59:43.607Z,95.40
2019-04-05T05:00:43.581Z,101.70
2019-04-05T05:01:43.608Z,96.40
2019-04-05T05:02:43.584Z,101.30
2019-04-05T05:03:43.562Z,96.40
2019-04-05T05:04:43.570Z,92.10
2019-04-05T05:05:43.519Z,102.80
2019-04-05T05:06:43.514Z,97.30
2019-04-05T05:07:43.523Z,92.80
2019-04-05T05:08:43.500Z,88.30
2019-04-05T05:09:43.480Z,99.40
2019-04-05T05:10:43.480Z,88.20
2019-04-05T05:11:43.464Z,90.80
2019-04-05T05:12:43.477Z,105.40
2019-04-05T05:13:43.448Z,94.10
2019-04-05T05:14:43.449Z,94.80
2019-04-05T05:15:43.430Z,94.50
2019-04-05T05:16:43.415Z,94.50
2019-04-05T05:17:43.422Z,97.90
2019-04-05T05:18:43.387Z,92.40
2019-04-05T05:19:43.402Z,90.80
2019-04-05T05:20:43.411Z,92.90
2019-04-05T05:21:43.345Z,90.60
2019-04-05T05:22:43.370Z,93.10
2019-04-05T05:23:43.325Z,93.50
2019-04-05T05:24:43.334Z,97.50
2019-04-05T05:25:43.337Z,94.00
2019-04-05T05:26:43.334Z,92.40
2019-04-05T05:27:43.298Z,101.10
2019-04-05T05:28:43.264Z,93.30
2019-04-05T05:29:43.260Z,98.30
2019-04-05T05:30:44.230Z,101.10
2019-04-05T05:31:43.282Z,100.00
2019-04-05T05:32:43.259Z,101.20
2019-04-05T05:35:04.819Z,92.50
2019-04-05T05:36:05.819Z,99.60
2019-04-05T05:37:05.840Z,97.60
2019-04-05T05:38:06.213Z,102.20
2019-04-05T05:39:05.785Z,101.30
2019-04-05T05:40:06.097Z,99.60
2019-04-05T05:41:06.680Z,94.80
2019-04-05T05:42:05.942Z,99.20
2019-04-05T05:43:05.774Z,108.60
2019-04-05T05:44:05.756Z,97.90
2019-04-05T05:45:05.689Z,108.30
2019-04-05T05:46:05.777Z,98.40
2019-04-05T05:47:05.681Z,89.20
2019-04-05T05:48:05.779Z,90.00
2019-04-05T05:49:05.682Z,84.40
2019-04-05T05:50:05.640Z,80.90
2019-04-05T05:51:05.764Z,81.00
2019-04-05T05:52:05.643Z,74.00
2019-04-05T05:53:05.628Z,68.00
2019-04-05T05:54:05.592Z,68.90
2019-04-05T05:55:06.501Z,65.40
2019-04-05T05:56:05.570Z,66.30
2019-04-05T05:57:05.561Z,67.60
2019-04-05T05:58:05.641Z,72.40
2019-04-05T05:59:05.533Z,67.80
2019-04-05T06:00:06.713Z,65.20
2019-04-05T06:01:05.527Z,63.90
2019-04-05T06:02:07.236Z,67.90
2019-04-05T06:03:06.379Z,78.10
2019-04-05T06:04:05.535Z,70.60
2019-04-05T06:05:05.473Z,73.40
2019-04-05T06:06:05.469Z,79.00
2019-04-05T06:07:05.527Z,79.30
2019-04-05T06:08:05.499Z,83.60
2019-04-05T06:09:06.423Z,85.30
2019-04-05T06:10:06.479Z,86.40
2019-04-05T06:11:05.411Z,89.60
2019-04-05T06:12:05.397Z,88.40
2019-04-05T06:13:07.268Z,88.70
2019-04-05T06:14:05.391Z,88.30
2019-04-05T06:15:05.389Z,82.10
2019-04-05T06:16:06.183Z,86.10
2019-04-05T06:17:05.341Z,90.50
2019-04-05T06:18:05.389Z,89.00
2019-04-05T06:19:05.404Z,89.00
2019-04-05T06:20:05.298Z,78.80
2019-04-05T06:21:05.319Z,80.10
2019-04-05T06:22:05.292Z,88.20
2019-04-05T06:23:05.321Z,83.40
2019-04-05T06:24:05.479Z,72.20
2019-04-05T06:25:05.270Z,84.40
2019-04-05T06:26:05.240Z,79.10
2019-04-05T06:27:05.229Z,77.90
2019-04-05T06:28:05.287Z,71.20
2019-04-05T06:29:05.265Z,76.70
2019-04-05T06:30:05.565Z,73.00
2019-04-05T06:31:05.198Z,83.40
2019-04-05T06:32:05.181Z,80.60
2019-04-05T06:33:05.314Z,80.30
2019-04-05T06:34:05.203Z,78.10
2019-04-05T06:35:05.182Z,69.70
2019-04-05T06:36:05.165Z,76.50
2019-04-05T06:37:05.160Z,75.00
2019-04-05T06:38:05.239Z,80.60
2019-04-05T06:39:05.197Z,66.10
2019-04-05T06:40:05.170Z,66.60
2019-04-05T06:41:05.719Z,72.30
2019-04-05T06:42:05.282Z,81.50
2019-04-05T06:43:06.686Z,62.10
2019-04-05T06:44:05.228Z,64.50
2019-04-05T06:45:05.118Z,59.80
2019-04-05T06:46:05.200Z,56.60
2019-04-05T06:47:05.027Z,57.20
2019-04-05T06:48:18.024Z,55.20
2019-04-05T06:49:05.003Z,50.80
2019-04-05T06:50:04.992Z,47.20
2019-04-05T06:51:04.974Z,41.40
2019-04-05T06:52:04.998Z,42.10
2019-04-05T06:53:04.983Z,42.20
2019-04-05T06:54:05.006Z,43.00
2019-04-05T06:55:04.944Z,46.00
2019-04-05T06:56:04.914Z,41.10
2019-04-05T06:57:04.946Z,38.90
2019-04-05T06:58:04.923Z,41.20
2019-04-05T06:59:04.876Z,38.90
2019-04-05T07:00:05.436Z,37.00
2019-04-05T07:01:04.862Z,37.20
2019-04-05T07:02:04.901Z,34.30
2019-04-05T07:03:04.868Z,34.80
2019-04-05T07:04:05.458Z,33.00
2019-04-05T07:05:04.823Z,37.30
2019-04-05T07:06:04.819Z,35.40
2019-04-05T07:07:05.005Z,33.20
2019-04-05T07:08:04.842Z,34.00
2019-04-05T07:09:04.782Z,32.40
2019-04-05T07:10:04.775Z,32.70
2019-04-05T07:11:04.758Z,31.90
2019-04-05T07:12:04.745Z,30.80
2019-04-05T07:13:04.868Z,30.70
2019-04-05T07:14:04.710Z,30.30
2019-04-05T07:15:04.721Z,29.70
2019-04-05T07:16:04.686Z,30.20
2019-04-05T07:17:07.687Z,27.50
2019-04-05T07:18:04.713Z,28.90
2019-04-05T07:19:04.666Z,25.90
2019-04-05T07:20:04.655Z,28.30
2019-04-05T07:21:04.680Z,27.80
2019-04-05T07:22:04.623Z,26.00
2019-04-05T07:23:04.624Z,26.30
2019-04-05T07:24:04.626Z,27.00
2019-04-05T07:25:04.598Z,27.00
2019-04-05T07:26:04.624Z,31.10
2019-04-05T07:27:04.577Z,28.70
2019-04-05T07:28:04.561Z,28.80
2019-04-05T07:29:04.574Z,28.30
2019-04-05T07:30:04.742Z,29.70
2019-04-05T07:31:04.533Z,29.30
2019-04-05T07:32:04.519Z,31.10
2019-04-05T07:33:04.527Z,28.50
2019-04-05T07:34:04.534Z,27.60
2019-04-05T07:36:14.046Z,35.50
2019-04-05T07:37:15.468Z,34.90
2019-04-05T07:38:15.022Z,34.10
2019-04-05T07:39:14.992Z,34.60
2019-04-05T07:40:15.041Z,34.40
2019-04-05T07:41:15.068Z,41.20
2019-04-05T07:42:15.045Z,34.40
2019-04-05T07:43:15.026Z,34.60
2019-04-05T07:44:15.041Z,35.60
2019-04-05T07:45:15.056Z,39.90
2019-04-05T07:46:14.908Z,38.70
2019-04-05T07:47:14.900Z,33.30
2019-04-05T07:48:14.888Z,34.70
2019-04-05T07:49:14.897Z,32.70
2019-04-05T07:50:15.007Z,33.40
2019-04-05T07:51:14.928Z,32.70
2019-04-05T07:52:14.854Z,34.40
2019-04-05T07:53:14.838Z,33.90
2019-04-05T07:54:14.843Z,34.00
2019-04-05T07:55:14.931Z,34.30
2019-04-05T07:56:14.850Z,35.20
2019-04-05T07:57:14.805Z,31.80
2019-04-05T07:58:14.851Z,31.40
2019-04-05T07:59:14.924Z,31.70
2019-04-05T08:00:15.047Z,32.20
2019-04-05T08:01:14.872Z,30.80
2019-04-05T08:02:14.746Z,32.30
2019-04-05T08:03:14.816Z,32.40
2019-04-05T08:04:16.236Z,32.70
2019-04-05T08:05:15.126Z,37.50
2019-04-05T08:06:14.876Z,33.80
2019-04-05T08:07:14.773Z,36.50
2019-04-05T08:08:14.717Z,34.40
2019-04-05T08:09:14.700Z,33.10
2019-04-05T08:10:14.674Z,35.20
2019-04-05T08:11:14.768Z,36.80
2019-04-05T08:12:15.105Z,36.00
2019-04-05T08:18:57.027Z,39.90
2019-04-05T08:19:47.425Z,35.40
2019-04-05T08:20:47.682Z,32.00
2019-04-05T08:21:47.410Z,33.20
2019-04-05T08:22:47.400Z,33.60
2019-04-05T08:23:47.430Z,31.80
2019-04-05T08:24:47.434Z,29.50
2019-04-05T08:25:47.405Z,31.80
2019-04-05T08:26:47.368Z,33.90
2019-04-05T08:27:47.345Z,34.40
2019-04-05T08:28:47.449Z,31.20
2019-04-05T08:29:47.309Z,30.50
2019-04-05T08:30:47.300Z,32.00
2019-04-05T08:31:47.359Z,30.90
2019-04-05T08:32:47.436Z,30.50
2019-04-05T08:33:47.290Z,26.60
2019-04-05T08:34:47.295Z,26.00
2019-04-05T08:35:47.300Z,24.90
2019-04-05T08:36:47.257Z,26.20
2019-04-05T08:37:47.275Z,24.50
2019-04-05T08:38:47.953Z,25.20
2019-04-05T08:39:47.200Z,22.90
2019-04-05T08:40:48.284Z,26.00
2019-04-05T08:41:51.804Z,24.20
2019-04-05T08:42:47.242Z,23.90
2019-04-05T08:43:47.486Z,24.40
2019-04-05T08:44:47.186Z,23.90
2019-04-05T08:45:47.181Z,23.90
2019-04-05T08:46:47.154Z,24.10
2019-04-05T08:47:47.137Z,22.30
2019-04-05T08:48:47.202Z,23.50
2019-04-05T08:49:47.103Z,23.90
2019-04-05T08:50:47.103Z,23.00
2019-04-05T08:51:47.132Z,23.70
2019-04-05T08:52:47.265Z,22.10
2019-04-05T08:53:47.582Z,23.70
2019-04-05T08:54:47.162Z,23.50
2019-04-05T08:55:47.037Z,23.20
2019-04-05T08:56:47.016Z,22.40
2019-04-05T08:57:48.183Z,23.10
2019-04-05T08:58:47.050Z,22.80
2019-04-05T08:59:47.073Z,21.20
2019-04-05T09:00:47.047Z,23.20
2019-04-05T09:01:46.959Z,20.90
2019-04-05T09:02:47.049Z,22.10
2019-04-05T09:03:47.086Z,22.50
2019-04-05T09:04:46.956Z,21.30
2019-04-05T09:05:46.943Z,24.50
2019-04-05T09:06:46.908Z,23.80
2019-04-05T09:07:46.908Z,21.80
2019-04-05T09:08:46.894Z,21.50
2019-04-05T09:09:46.953Z,19.60
2019-04-05T09:10:46.902Z,20.10
2019-04-05T09:11:46.912Z,21.40
2019-04-05T09:12:46.847Z,22.10
2019-04-05T09:13:46.888Z,21.60
2019-04-05T09:14:49.621Z,21.60
2019-04-05T09:15:52.446Z,19.80
2019-04-05T09:16:46.806Z,18.80
2019-04-05T09:17:46.785Z,20.20
2019-04-05T09:18:49.286Z,20.60
2019-04-05T09:19:46.786Z,18.80
2019-04-05T09:20:46.732Z,21.90
2019-04-05T09:21:46.733Z,20.70
2019-04-05T09:22:46.782Z,21.40
2019-04-05T09:23:46.712Z,20.70
2019-04-05T09:24:46.747Z,21.30
2019-04-05T09:25:46.699Z,19.70
2019-04-05T09:26:46.679Z,19.40
2019-04-05T09:27:46.704Z,19.20
2019-04-05T09:28:46.676Z,19.70
2019-04-05T09:29:46.693Z,18.60
2019-04-05T09:30:46.668Z,18.90
2019-04-05T09:31:46.613Z,19.90
2019-04-05T09:32:46.692Z,20.20
2019-04-05T09:33:46.627Z,21.60
2019-04-05T09:34:46.631Z,20.00
2019-04-05T09:35:46.585Z,21.80
2019-04-05T09:36:46.587Z,19.40
2019-04-05T09:37:46.588Z,21.20
2019-04-05T09:38:46.563Z,22.80
2019-04-05T09:39:46.596Z,20.40
2019-04-05T09:40:46.528Z,21.10
2019-04-05T09:41:46.549Z,20.60
2019-04-05T09:42:46.829Z,21.40
2019-04-05T09:43:46.686Z,19.20
2019-04-05T09:44:46.748Z,19.60
2019-04-05T09:45:46.517Z,19.40
2019-04-05T09:46:50.846Z,20.50
2019-04-05T09:47:46.572Z,19.80
2019-04-05T09:48:46.484Z,20.10
2019-04-05T09:49:46.501Z,20.90
2019-04-05T09:50:50.291Z,20.70
2019-04-05T09:51:46.446Z,19.90
2019-04-05T09:52:46.747Z,19.10
2019-04-05T09:53:48.747Z,21.20
2019-04-05T09:54:46.418Z,20.50
2019-04-05T09:55:50.823Z,19.40
2019-04-05T09:56:48.605Z,20.90
2019-04-05T09:57:46.389Z,19.30
2019-04-05T09:58:46.332Z,19.00
2019-04-05T09:59:46.344Z,18.80
2019-04-05T10:00:46.388Z,20.90
2019-04-05T10:01:48.949Z,18.20
2019-04-05T10:02:51.112Z,19.30
2019-04-05T10:03:50.924Z,20.90
2019-04-05T10:04:51.151Z,19.10
2019-04-05T10:05:47.581Z,17.20
2019-04-05T10:06:47.198Z,19.50
2019-04-05T10:07:55.457Z,19.30
2019-04-05T10:08:49.630Z,20.00
2019-04-05T10:09:49.065Z,19.40
2019-04-05T10:10:47.573Z,19.30
2019-04-05T10:11:47.636Z,20.80
2019-04-05T10:12:46.403Z,19.30
2019-04-05T10:13:48.259Z,20.00
2019-04-05T10:14:46.195Z,19.90
2019-04-05T10:15:46.166Z,19.60
2019-04-05T10:16:46.131Z,19.20
2019-04-05T10:17:46.128Z,20.40
2019-04-05T10:19:56.303Z,17.80
2019-04-05T10:20:56.344Z,19.20
2019-04-05T10:21:56.354Z,19.50
2019-04-05T10:22:56.323Z,20.00
2019-04-05T10:23:56.351Z,20.50
2019-04-05T10:25:04.065Z,20.30
2019-04-05T10:25:57.142Z,19.20
2019-04-05T10:26:56.275Z,21.00
2019-04-05T10:27:56.381Z,21.00
2019-04-05T10:28:56.308Z,18.50
2019-04-05T10:29:56.367Z,21.20
2019-04-05T10:30:56.587Z,18.60
2019-04-05T10:31:56.232Z,23.20
2019-04-05T10:32:56.310Z,21.50
2019-04-05T10:33:56.217Z,20.50
2019-04-05T10:34:56.369Z,19.10
2019-04-05T10:35:57.020Z,20.70
2019-04-05T10:36:56.301Z,21.10
2019-04-05T10:37:58.314Z,21.10
2019-04-05T10:38:56.301Z,20.00
2019-04-05T10:39:56.242Z,19.40
2019-04-05T10:40:56.125Z,21.00
2019-04-05T10:42:03.207Z,18.30
2019-04-05T10:42:56.129Z,19.80
2019-04-05T10:43:58.448Z,19.60
2019-04-05T10:44:56.188Z,18.70
2019-04-05T10:45:56.087Z,19.20
2019-04-05T10:46:56.087Z,20.70
2019-04-05T10:47:56.073Z,18.60
2019-04-05T10:48:56.047Z,19.10
2019-04-05T10:50:03.097Z,20.80
2019-04-05T10:50:58.796Z,19.90
2019-04-05T10:51:55.994Z,19.00
2019-04-05T10:52:56.965Z,20.10
2019-04-05T10:53:55.985Z,22.30
2019-04-05T10:54:58.027Z,20.70
2019-04-05T10:55:56.000Z,18.40
2019-04-05T10:56:56.285Z,21.00
2019-04-05T10:57:55.928Z,18.00
2019-04-05T10:58:55.917Z,18.50
2019-04-05T10:59:56.627Z,17.70
2019-04-05T11:00:55.933Z,20.90
2019-04-05T11:01:55.896Z,19.90
2019-04-05T11:02:56.036Z,19.80
2019-04-05T11:03:55.950Z,20.70
2019-04-05T11:04:55.857Z,20.50
2019-04-05T11:05:55.956Z,18.40
2019-04-05T11:06:55.861Z,20.50
2019-04-05T11:07:55.924Z,19.20
2019-04-05T11:08:55.828Z,17.70
2019-04-05T11:09:55.794Z,20.30
2019-04-05T11:10:55.818Z,18.40
2019-04-05T11:11:55.837Z,20.40
2019-04-05T11:12:55.772Z,19.40
2019-04-05T11:13:55.775Z,19.50
2019-04-05T11:14:55.746Z,20.80
2019-04-05T11:15:55.782Z,18.40
2019-04-05T11:16:58.717Z,20.60
2019-04-05T11:17:55.715Z,20.40
2019-04-05T11:18:55.704Z,20.80
2019-04-05T11:19:55.684Z,20.40
2019-04-05T11:20:55.702Z,19.20
2019-04-05T11:21:55.662Z,18.60
2019-04-05T11:22:55.656Z,18.40
2019-04-05T11:23:56.380Z,20.20
2019-04-05T11:24:55.623Z,20.80
2019-04-05T11:25:55.632Z,22.00
2019-04-05T11:26:55.602Z,20.10
2019-04-05T11:27:55.600Z,21.60
2019-04-05T11:28:55.591Z,18.50
2019-04-05T11:29:57.870Z,21.00
2019-04-05T11:30:55.579Z,19.00
2019-04-05T11:31:57.397Z,20.20
2019-04-05T11:32:55.538Z,19.80
2019-04-05T11:33:55.536Z,17.90
2019-04-05T11:34:55.529Z,20.50
2019-04-05T11:35:57.901Z,18.80
2019-04-05T11:36:55.495Z,19.30
2019-04-05T11:37:55.485Z,19.20
2019-04-05T11:38:55.470Z,19.80
2019-04-05T11:39:55.470Z,20.60
2019-04-05T11:40:55.474Z,18.70
2019-04-05T11:41:55.440Z,18.40
2019-04-05T11:42:55.438Z,20.00
2019-04-05T11:43:55.417Z,21.80
2019-04-05T11:44:55.423Z,20.10
2019-04-05T11:45:55.416Z,21.30
2019-04-05T11:46:55.387Z,23.00
2019-04-05T11:47:55.721Z,20.90
2019-04-05T11:48:55.383Z,20.10
2019-04-05T11:49:55.401Z,20.30
2019-04-05T11:50:55.379Z,20.60
2019-04-05T11:51:55.336Z,19.50
2019-04-05T11:52:55.341Z,22.70
2019-04-05T11:53:55.309Z,21.60
2019-04-05T11:54:55.296Z,21.00
2019-04-05T11:55:55.317Z,19.60
2019-04-05T11:56:55.285Z,20.20
2019-04-05T11:57:55.263Z,19.20
2019-04-05T11:58:55.258Z,19.90
2019-04-05T11:59:55.249Z,20.90
2019-04-05T12:00:55.247Z,22.10
2019-04-05T12:01:55.234Z,24.60
2019-04-05T12:02:55.220Z,19.40
2019-04-05T12:03:55.269Z,21.50
2019-04-05T12:04:55.202Z,21.40
2019-04-05T12:05:55.191Z,20.40
2019-04-05T12:06:55.176Z,21.30
2019-04-05T12:08:00.623Z,21.80
2019-04-05T12:08:55.153Z,21.20
2019-04-05T12:09:55.129Z,21.70
2019-04-05T12:10:55.143Z,20.80
2019-04-05T12:11:55.112Z,23.60
2019-04-05T12:12:55.104Z,19.70
2019-04-05T12:13:55.096Z,20.70
2019-04-05T12:14:55.075Z,21.10
2019-04-05T12:15:57.936Z,21.00
2019-04-05T12:16:55.058Z,21.30
2019-04-05T12:17:55.056Z,22.70
2019-04-05T12:18:55.037Z,22.80
2019-04-05T12:21:05.744Z,19.50
2019-04-05T12:22:05.872Z,21.80
2019-04-05T12:23:05.204Z,21.00
2019-04-05T12:24:05.183Z,22.00
2019-04-05T12:25:05.196Z,20.40
2019-04-05T12:26:05.215Z,19.50
2019-04-05T12:27:05.586Z,21.80
2019-04-05T12:28:06.964Z,22.20
2019-04-05T12:29:05.144Z,19.80
2019-04-05T12:30:05.132Z,20.80
2019-04-05T12:31:05.119Z,22.70
2019-04-05T12:32:05.134Z,20.90
2019-04-05T12:33:13.784Z,21.00
2019-04-05T12:34:05.079Z,22.40
2019-04-05T12:35:08.128Z,20.40
2019-04-05T12:36:05.070Z,22.60
2019-04-05T12:37:05.072Z,20.80
2019-04-05T12:38:06.976Z,22.30
2019-04-05T12:39:08.096Z,23.40
2019-04-05T12:40:05.314Z,23.60
2019-04-05T12:41:05.018Z,24.20
2019-04-05T12:42:05.012Z,23.10
2019-04-05T12:43:04.996Z,22.70
2019-04-05T12:44:04.980Z,25.60
2019-04-05T12:45:04.959Z,24.80
2019-04-05T12:46:04.963Z,23.20
2019-04-05T12:47:04.973Z,20.00
2019-04-05T12:48:04.929Z,21.90
2019-04-05T12:49:04.926Z,24.40
2019-04-05T12:50:04.910Z,21.40
2019-04-05T12:51:05.688Z,22.00
2019-04-05T12:52:04.925Z,22.10
2019-04-05T12:53:04.884Z,22.70
2019-04-05T12:54:04.862Z,22.60
2019-04-05T12:55:04.854Z,22.20
2019-04-05T12:56:04.836Z,22.50
2019-04-05T12:57:04.858Z,24.20
2019-04-05T12:58:04.827Z,22.60
2019-04-05T12:59:04.820Z,19.80
2019-04-05T13:00:04.812Z,23.70
2019-04-05T13:01:04.802Z,23.40
2019-04-05T13:02:04.820Z,23.00
2019-04-05T13:03:04.768Z,22.40
2019-04-05T13:04:04.747Z,22.60
2019-04-05T13:05:04.744Z,20.10
2019-04-05T13:06:04.739Z,23.50
2019-04-05T13:07:04.740Z,19.40